createdAt,value
2018-05-06T00:01:44.175Z,68.60
2018-05-06T00:04:10.490Z,69.60
2018-05-06T00:06:36.684Z,70.00
2018-05-06T00:09:03.266Z,70.10
2018-05-06T00:11:29.394Z,70.50
2018-05-06T00:13:55.582Z,70.30
2018-05-06T00:16:21.785Z,70.80
2018-05-06T00:18:48.689Z,71.40
2018-05-06T00:21:14.822Z,71.30
2018-05-06T00:23:40.967Z,70.40
2018-05-06T00:26:07.098Z,70.60
2018-05-06T00:28:33.270Z,70.70
2018-05-06T00:30:59.465Z,71.30
2018-05-06T00:33:25.590Z,71.10
2018-05-06T00:35:51.713Z,71.10
2018-05-06T00:38:17.965Z,71.00
2018-05-06T00:40:44.841Z,71.10
2018-05-06T00:43:10.994Z,71.00
2018-05-06T00:45:37.190Z,71.40
2018-05-06T00:48:03.321Z,71.20
2018-05-06T00:50:29.438Z,72.00
2018-05-06T00:52:55.561Z,71.50
2018-05-06T00:55:21.709Z,71.70
2018-05-06T00:57:47.825Z,72.60
2018-05-06T01:00:14.050Z,73.20
2018-05-06T01:02:40.181Z,73.20
2018-05-06T01:05:07.073Z,73.10
2018-05-06T01:07:33.285Z,73.10
2018-05-06T01:10:00.237Z,73.70
2018-05-06T01:12:26.365Z,73.70
2018-05-06T01:14:52.525Z,75.70
2018-05-06T01:17:18.675Z,75.90
2018-05-06T01:19:44.810Z,76.30
2018-05-06T01:22:10.962Z,76.90
2018-05-06T01:24:37.120Z,77.40
2018-05-06T01:27:03.264Z,77.90
2018-05-06T01:29:30.165Z,79.10
2018-05-06T01:31:56.327Z,79.00
2018-05-06T01:34:22.497Z,79.60
2018-05-06T01:36:48.650Z,79.90
2018-05-06T01:39:15.159Z,78.80
2018-05-06T01:41:41.489Z,78.80
2018-05-06T01:44:08.372Z,79.90
2018-05-06T01:46:34.507Z,79.80
2018-05-06T01:49:00.681Z,80.40
2018-05-06T01:51:27.562Z,82.40
2018-05-06T01:53:53.682Z,82.30
2018-05-06T01:56:19.801Z,81.50
2018-05-06T01:58:45.930Z,81.10
2018-05-06T02:01:12.097Z,81.10
2018-05-06T02:03:38.228Z,81.30
2018-05-06T02:06:04.369Z,81.80
2018-05-06T02:08:30.497Z,82.00
2018-05-06T02:10:56.992Z,82.00
2018-05-06T02:13:23.134Z,82.40
2018-05-06T02:15:49.286Z,82.20
2018-05-06T02:18:15.451Z,81.70
2018-05-06T02:20:42.337Z,82.20
2018-05-06T02:23:08.493Z,82.10
2018-05-06T02:25:34.610Z,81.90
2018-05-06T02:28:00.737Z,83.50
2018-05-06T02:30:26.874Z,83.40
2018-05-06T02:32:53.037Z,85.00
2018-05-06T02:35:19.122Z,84.70
2018-05-06T02:37:45.509Z,84.40
2018-05-06T02:40:11.654Z,84.70
2018-05-06T02:42:37.774Z,83.60
2018-05-06T02:45:03.931Z,84.00
2018-05-06T02:47:30.126Z,83.40
2018-05-06T02:49:56.275Z,82.90
2018-05-06T02:52:22.403Z,83.20
2018-05-06T02:54:48.534Z,83.40
2018-05-06T02:57:14.698Z,83.70
2018-05-06T02:59:40.854Z,84.70
2018-05-06T03:02:07.013Z,84.10
2018-05-06T03:04:33.133Z,83.30
2018-05-06T03:06:59.265Z,84.90
2018-05-06T03:09:25.500Z,84.90
2018-05-06T03:11:51.614Z,85.80
2018-05-06T03:14:17.749Z,85.60
2018-05-06T03:16:43.910Z,85.20
2018-05-06T03:19:10.285Z,85.30
2018-05-06T03:21:37.321Z,86.10
2018-05-06T03:24:04.205Z,86.60
2018-05-06T03:26:30.310Z,86.60
2018-05-06T03:28:56.454Z,86.50
2018-05-06T03:31:22.563Z,86.40
2018-05-06T03:33:48.697Z,86.10
2018-05-06T03:36:14.849Z,86.40
2018-05-06T03:38:40.998Z,86.80
2018-05-06T03:41:07.127Z,86.70
2018-05-06T03:43:33.290Z,87.30
2018-05-06T03:46:00.169Z,87.80
2018-05-06T03:48:26.300Z,87.80
2018-05-06T03:50:52.450Z,87.20
2018-05-06T03:53:18.602Z,86.60
2018-05-06T03:55:44.852Z,87.40
2018-05-06T03:58:23.913Z,87.90
2018-05-06T04:00:50.142Z,87.90
2018-05-06T04:03:16.298Z,88.50
2018-05-06T04:05:42.518Z,88.60
2018-05-06T04:08:10.520Z,89.50
2018-05-06T04:10:37.375Z,89.20
2018-05-06T04:13:04.246Z,88.90
2018-05-06T04:15:30.415Z,88.90
2018-05-06T04:17:56.571Z,89.70
2018-05-06T04:20:23.438Z,89.60
2018-05-06T04:22:49.581Z,89.50
2018-05-06T04:25:15.709Z,88.90
2018-05-06T04:27:41.832Z,89.20
2018-05-06T04:30:07.991Z,88.70
2018-05-06T04:32:34.141Z,88.40
2018-05-06T04:35:00.267Z,88.90
2018-05-06T04:37:27.146Z,88.30
2018-05-06T04:39:53.303Z,88.30
2018-05-06T04:42:19.448Z,88.30
2018-05-06T04:44:45.569Z,87.80
2018-05-06T04:47:11.851Z,86.80
2018-05-06T04:49:37.993Z,86.10
2018-05-06T04:52:04.126Z,85.40
2018-05-06T04:54:30.305Z,85.00
2018-05-06T04:56:56.421Z,84.40
2018-05-06T04:59:22.537Z,85.50
2018-05-06T05:01:48.674Z,85.10
2018-05-06T05:04:14.840Z,84.20
2018-05-06T05:06:41.013Z,84.20
2018-05-06T05:09:07.128Z,83.70
2018-05-06T05:11:33.251Z,82.40
2018-05-06T05:13:59.772Z,82.60
2018-05-06T05:16:25.935Z,82.30
2018-05-06T05:18:52.205Z,82.30
2018-05-06T05:21:19.114Z,81.20
2018-05-06T05:23:45.402Z,81.20
2018-05-06T05:26:11.541Z,80.00
2018-05-06T05:28:37.685Z,79.50
2018-05-06T05:31:03.838Z,78.80
2018-05-06T05:33:29.993Z,78.40
2018-05-06T05:35:56.109Z,78.40
2018-05-06T05:38:23.262Z,77.80
2018-05-06T05:40:49.504Z,77.60
2018-05-06T05:43:15.635Z,78.40
2018-05-06T05:45:41.947Z,78.60
2018-05-06T05:48:08.118Z,77.80
2018-05-06T05:50:34.250Z,78.20
2018-05-06T05:53:00.366Z,78.50
2018-05-06T05:55:26.521Z,75.30
2018-05-06T05:57:53.391Z,71.00
2018-05-06T06:00:19.552Z,70.40
2018-05-06T06:02:45.785Z,69.00
2018-05-06T06:05:11.962Z,65.40
2018-05-06T06:07:38.849Z,66.80
2018-05-06T06:10:05.014Z,66.80
2018-05-06T06:12:31.146Z,63.70
2018-05-06T06:14:57.265Z,64.30
2018-05-06T06:17:23.425Z,64.60
2018-05-06T06:19:49.666Z,61.90
2018-05-06T06:22:15.927Z,62.00
2018-05-06T06:24:42.076Z,62.90
2018-05-06T06:27:08.197Z,62.10
2018-05-06T06:29:34.330Z,65.10
2018-05-06T06:32:00.455Z,63.70
2018-05-06T06:34:26.591Z,62.50
2018-05-06T06:36:52.709Z,63.10
2018-05-06T06:39:18.911Z,61.80
2018-05-06T06:41:45.051Z,65.30
2018-05-06T06:44:11.178Z,61.60
2018-05-06T06:46:37.314Z,61.30
2018-05-06T06:49:03.438Z,62.40
2018-05-06T06:51:29.570Z,63.60
2018-05-06T06:53:55.697Z,60.60
2018-05-06T06:56:21.882Z,60.00
2018-05-06T06:58:48.015Z,62.20
2018-05-06T07:01:14.356Z,60.10
2018-05-06T07:03:40.477Z,60.80
2018-05-06T07:06:06.649Z,61.40
2018-05-06T07:08:33.509Z,60.30
2018-05-06T07:10:59.666Z,59.80
2018-05-06T07:13:25.806Z,58.70
2018-05-06T07:15:52.117Z,58.90
2018-05-06T07:18:19.734Z,57.70
2018-05-06T07:20:46.650Z,57.70
2018-05-06T07:23:12.794Z,57.70
2018-05-06T07:25:38.910Z,59.20
2018-05-06T07:28:05.086Z,57.00
2018-05-06T07:30:31.222Z,58.20
2018-05-06T07:32:57.353Z,60.00
2018-05-06T07:35:23.489Z,58.70
2018-05-06T07:37:49.722Z,56.00
2018-05-06T07:40:15.863Z,59.20
2018-05-06T07:42:41.994Z,58.20
2018-05-06T07:45:08.611Z,58.90
2018-05-06T07:47:34.730Z,59.00
2018-05-06T07:50:00.873Z,57.30
2018-05-06T07:52:27.057Z,56.60
2018-05-06T07:54:53.166Z,57.80
2018-05-06T07:57:20.121Z,55.70
2018-05-06T07:59:46.984Z,56.30
2018-05-06T08:02:13.525Z,56.20
2018-05-06T08:04:39.637Z,58.20
2018-05-06T08:07:05.881Z,57.60
2018-05-06T08:09:32.204Z,56.50
2018-05-06T08:11:58.385Z,56.70
2018-05-06T08:14:24.538Z,56.50
2018-05-06T08:16:51.421Z,55.70
2018-05-06T08:19:17.549Z,55.50
2018-05-06T08:21:43.672Z,56.80
2018-05-06T08:24:09.853Z,54.70
2018-05-06T08:26:36.477Z,55.50
2018-05-06T08:29:02.601Z,56.60
2018-05-06T08:31:28.730Z,55.60
2018-05-06T08:33:54.897Z,52.40
2018-05-06T08:36:21.758Z,54.70
2018-05-06T08:38:48.616Z,52.30
2018-05-06T08:41:14.749Z,52.30
2018-05-06T08:43:40.876Z,53.20
2018-05-06T08:46:07.067Z,53.50
2018-05-06T08:48:33.929Z,51.50
2018-05-06T08:51:00.815Z,52.40
2018-05-06T08:53:26.946Z,52.20
2018-05-06T08:55:53.094Z,53.70
2018-05-06T08:58:19.229Z,52.10
2018-05-06T09:00:45.362Z,52.50
2018-05-06T09:03:12.233Z,52.30
2018-05-06T09:05:38.417Z,52.10
2018-05-06T09:08:04.998Z,51.60
2018-05-06T09:10:31.159Z,50.70
2018-05-06T09:12:57.290Z,54.30
2018-05-06T09:15:23.417Z,53.00
2018-05-06T09:17:49.597Z,51.40
2018-05-06T09:20:16.253Z,48.00
2018-05-06T09:22:42.379Z,47.70
2018-05-06T09:25:08.509Z,48.10
2018-05-06T09:27:34.630Z,52.00
2018-05-06T09:30:00.762Z,50.90
2018-05-06T09:32:26.975Z,49.40
2018-05-06T09:34:53.037Z,49.30
2018-05-06T09:37:19.150Z,48.40
2018-05-06T09:39:45.349Z,50.50
2018-05-06T09:42:11.474Z,48.10
2018-05-06T09:44:37.602Z,46.60
2018-05-06T09:47:04.509Z,46.60
2018-05-06T09:49:30.658Z,46.40
2018-05-06T09:51:56.781Z,46.10
2018-05-06T09:54:22.934Z,46.60
2018-05-06T09:56:49.841Z,45.50
2018-05-06T09:59:15.994Z,45.30
2018-05-06T10:01:42.134Z,45.00
2018-05-06T10:04:09.078Z,43.40
2018-05-06T10:06:35.942Z,44.20
2018-05-06T10:09:02.133Z,44.20
2018-05-06T10:11:28.277Z,45.30
2018-05-06T10:13:54.385Z,46.60
2018-05-06T10:16:20.514Z,44.60
2018-05-06T10:18:46.633Z,43.00
2018-05-06T10:21:12.786Z,45.10
2018-05-06T10:23:39.670Z,43.90
2018-05-06T10:26:05.836Z,43.80
2018-05-06T10:28:31.969Z,44.00
2018-05-06T10:30:58.127Z,45.10
2018-05-06T10:33:25.145Z,43.30
2018-05-06T10:35:51.307Z,43.20
2018-05-06T10:38:17.457Z,42.70
2018-05-06T10:40:43.625Z,45.00
2018-05-06T10:43:09.751Z,45.20
2018-05-06T10:45:35.874Z,43.00
2018-05-06T10:48:02.021Z,42.30
2018-05-06T10:50:28.204Z,43.90
2018-05-06T10:52:55.094Z,47.60
2018-05-06T10:55:21.378Z,47.40
2018-05-06T10:57:47.594Z,46.30
2018-05-06T11:00:14.653Z,47.80
2018-05-06T11:02:40.781Z,47.60
2018-05-06T11:05:08.280Z,45.00
2018-05-06T11:07:34.521Z,44.90
2018-05-06T11:10:00.825Z,47.20
2018-05-06T11:12:27.082Z,43.90
2018-05-06T11:14:53.358Z,45.00
2018-05-06T11:17:19.825Z,45.50
2018-05-06T11:19:46.001Z,47.60
2018-05-06T11:22:12.410Z,44.10
2018-05-06T11:24:38.550Z,44.00
2018-05-06T11:27:04.678Z,44.20
2018-05-06T11:29:30.920Z,46.90
2018-05-06T11:31:57.065Z,45.90
2018-05-06T11:34:23.178Z,44.90
2018-05-06T11:36:49.396Z,44.80
2018-05-06T11:39:15.487Z,44.30
2018-05-06T11:41:42.762Z,44.80
2018-05-06T11:44:08.873Z,45.00
2018-05-06T11:46:35.001Z,44.60
2018-05-06T11:49:01.134Z,43.60
2018-05-06T11:51:27.337Z,42.90
2018-05-06T11:53:53.494Z,43.20
2018-05-06T11:56:19.739Z,44.20
2018-05-06T11:58:45.782Z,44.40
2018-05-06T12:01:11.970Z,45.20
2018-05-06T12:03:38.846Z,43.50
2018-05-06T12:06:04.981Z,43.40
2018-05-06T12:08:31.149Z,44.20
2018-05-06T12:10:57.309Z,44.20
2018-05-06T12:13:23.438Z,43.60
2018-05-06T12:15:49.597Z,45.50
2018-05-06T12:18:15.731Z,45.30
2018-05-06T12:20:41.873Z,43.90
2018-05-06T12:23:08.173Z,44.50
2018-05-06T12:25:34.602Z,43.80
2018-05-06T12:28:00.742Z,43.10
2018-05-06T12:30:26.862Z,46.20
2018-05-06T12:32:53.734Z,43.90
2018-05-06T12:35:19.862Z,43.80
2018-05-06T12:37:46.001Z,44.40
2018-05-06T12:40:12.135Z,44.00
2018-05-06T12:42:38.364Z,44.70
2018-05-06T12:45:04.492Z,44.40
2018-05-06T12:47:30.722Z,44.40
2018-05-06T12:49:56.882Z,43.70
2018-05-06T12:52:23.508Z,45.30
2018-05-06T12:54:50.157Z,43.40
2018-05-06T12:57:16.522Z,44.90
2018-05-06T12:59:42.706Z,45.20
2018-05-06T13:02:09.573Z,47.00
2018-05-06T13:04:36.165Z,47.10
2018-05-06T13:07:02.363Z,45.70
2018-05-06T13:09:28.502Z,43.80
2018-05-06T13:11:54.852Z,45.70
2018-05-06T13:14:21.025Z,44.60
2018-05-06T13:16:47.912Z,43.80
2018-05-06T13:19:14.214Z,43.80
2018-05-06T13:21:40.549Z,45.90
2018-05-06T13:24:07.545Z,46.10
2018-05-06T13:26:33.636Z,46.00
2018-05-06T13:29:00.541Z,45.80
2018-05-06T13:31:26.892Z,45.70
2018-05-06T13:33:53.428Z,46.10
2018-05-06T13:36:19.926Z,43.60
2018-05-06T13:38:46.674Z,45.10
2018-05-06T13:41:13.505Z,44.50
2018-05-06T13:43:39.904Z,45.80
2018-05-06T13:46:06.376Z,46.20
2018-05-06T13:48:32.771Z,44.50
2018-05-06T13:50:59.827Z,46.30
2018-05-06T13:53:26.968Z,44.70
2018-05-06T13:55:53.680Z,44.70
2018-05-06T13:58:20.813Z,44.30
2018-05-06T14:00:47.274Z,44.20
2018-05-06T14:03:13.472Z,44.50
2018-05-06T14:05:39.964Z,43.60
2018-05-06T14:08:06.093Z,43.40
2018-05-06T14:10:32.218Z,44.90
2018-05-06T14:12:58.550Z,45.10
2018-05-06T14:15:24.777Z,43.30
2018-05-06T14:17:51.025Z,44.50
2018-05-06T14:20:17.355Z,45.40
2018-05-06T14:22:44.500Z,45.00
2018-05-06T14:25:10.854Z,44.80
2018-05-06T14:27:37.797Z,44.30
2018-05-06T14:30:04.269Z,46.00
2018-05-06T14:32:31.601Z,44.30
2018-05-06T14:34:57.762Z,43.20
2018-05-06T14:37:24.493Z,46.10
2018-05-06T14:39:50.637Z,44.20
2018-05-06T14:42:16.762Z,46.10
2018-05-06T14:44:42.898Z,45.00
2018-05-06T14:50:16.409Z,44.60
2018-05-06T14:52:42.921Z,44.90
2018-05-06T14:55:09.186Z,44.50
2018-05-06T14:57:35.710Z,43.80
2018-05-06T15:00:03.065Z,42.40
2018-05-06T15:02:29.263Z,42.30
2018-05-06T15:04:56.124Z,43.90
2018-05-06T15:07:22.751Z,43.60
2018-05-06T15:09:49.461Z,42.10
2018-05-06T15:12:16.255Z,43.80
2018-05-06T15:14:43.280Z,44.80
2018-05-06T15:17:09.472Z,42.20
2018-05-06T15:19:35.668Z,43.10
2018-05-06T15:22:02.822Z,43.10
2018-05-06T15:24:30.149Z,43.50
2018-05-06T15:26:56.710Z,43.30
2018-05-06T15:29:22.948Z,42.40
2018-05-06T15:31:50.107Z,42.60
2018-05-06T15:34:17.099Z,45.30
2018-05-06T15:36:43.320Z,45.20
2018-05-06T15:39:09.494Z,45.30
2018-05-06T15:41:35.705Z,43.30
2018-05-06T15:44:02.044Z,43.80
2018-05-06T15:46:28.268Z,42.60
2018-05-06T15:48:54.468Z,43.90
2018-05-06T15:51:20.725Z,42.40
2018-05-06T15:53:46.936Z,41.60
2018-05-06T15:56:20.601Z,43.80
2018-05-06T15:58:46.824Z,42.50
2018-05-06T16:01:13.748Z,42.90
2018-05-06T16:03:52.120Z,42.80
2018-05-06T16:06:18.303Z,42.20
2018-05-06T16:08:45.256Z,41.90
2018-05-06T16:11:12.219Z,40.70
2018-05-06T16:13:38.464Z,40.60
2018-05-06T16:16:04.763Z,42.70
2018-05-06T16:18:31.772Z,43.50
2018-05-06T16:20:58.146Z,43.40
2018-05-06T16:23:25.176Z,42.00
2018-05-06T16:25:52.220Z,43.40
2018-05-06T16:28:18.512Z,43.30
2018-05-06T16:30:45.151Z,43.90
2018-05-06T16:33:11.344Z,42.70
2018-05-06T16:35:37.632Z,44.30
2018-05-06T16:38:03.849Z,42.90
2018-05-06T16:40:30.065Z,43.20
2018-05-06T16:42:56.292Z,41.10
2018-05-06T16:45:22.514Z,43.10
2018-05-06T16:47:48.713Z,42.40
2018-05-06T16:50:16.197Z,41.80
2018-05-06T16:52:42.492Z,41.80
2018-05-06T16:55:08.672Z,42.10
2018-05-06T16:57:34.905Z,42.80
2018-05-06T17:00:01.104Z,42.60
2018-05-06T17:02:27.384Z,42.00
2018-05-06T17:04:53.692Z,41.90
2018-05-06T17:07:20.080Z,44.30
2018-05-06T17:09:46.323Z,44.10
2018-05-06T17:12:12.569Z,42.90
2018-05-06T17:14:39.507Z,40.10
2018-05-06T17:17:05.747Z,40.50
2018-05-06T17:19:32.007Z,41.40
2018-05-06T17:21:58.190Z,40.70
2018-05-06T17:24:24.531Z,39.60
2018-05-06T17:26:50.761Z,41.70
2018-05-06T17:29:17.016Z,42.10
2018-05-06T17:31:43.373Z,40.90
2018-05-06T17:34:10.339Z,42.00
2018-05-06T17:36:37.284Z,41.90
2018-05-06T17:39:04.488Z,42.20
2018-05-06T17:41:32.945Z,42.40
2018-05-06T17:43:59.129Z,41.10
2018-05-06T17:46:26.110Z,40.90
2018-05-06T17:48:52.305Z,40.90
2018-05-06T17:51:19.231Z,42.70
2018-05-06T17:56:37.560Z,41.70
2018-05-06T17:59:03.752Z,42.10
2018-05-06T18:01:30.677Z,44.10
2018-05-06T18:03:56.867Z,44.20
2018-05-06T18:06:23.119Z,44.70
2018-05-06T18:08:49.328Z,44.80
2018-05-06T18:11:15.512Z,43.80
2018-05-06T18:13:42.546Z,45.00
2018-05-06T18:16:08.833Z,45.00
2018-05-06T18:18:35.041Z,45.30
2018-05-06T18:21:01.271Z,45.30
2018-05-06T18:23:27.549Z,45.70
2018-05-06T18:25:53.847Z,46.70
2018-05-06T18:28:20.107Z,46.80
2018-05-06T18:30:46.480Z,46.90
2018-05-06T18:33:12.856Z,47.80
2018-05-06T18:35:39.112Z,47.50
2018-05-06T18:38:05.350Z,46.70
2018-05-06T18:40:32.282Z,47.90
2018-05-06T18:42:58.599Z,47.70
2018-05-06T18:45:24.812Z,48.20
2018-05-06T18:47:51.012Z,48.40
2018-05-06T18:50:17.216Z,48.40
2018-05-06T18:52:44.139Z,49.50
2018-05-06T18:55:10.493Z,49.50
2018-05-06T18:57:36.782Z,49.80
2018-05-06T19:00:03.420Z,50.10
2018-05-06T19:02:29.611Z,50.20
2018-05-06T19:04:55.892Z,51.10
2018-05-06T19:07:22.791Z,53.80
2018-05-06T19:09:49.008Z,53.70
2018-05-06T19:12:15.295Z,51.50
2018-05-06T19:14:41.508Z,52.10
2018-05-06T19:17:08.035Z,52.10
2018-05-06T19:19:34.218Z,52.70
2018-05-06T19:22:01.185Z,52.70
2018-05-06T19:24:27.387Z,52.50
2018-05-06T19:26:54.327Z,52.80
2018-05-06T19:29:20.616Z,53.50
2018-05-06T19:31:46.816Z,53.60
2018-05-06T19:34:13.016Z,54.40
2018-05-06T19:36:39.204Z,53.50
2018-05-06T19:39:05.452Z,53.40
2018-05-06T19:41:31.672Z,54.00
2018-05-06T19:43:57.852Z,54.00
2018-05-06T19:46:24.845Z,53.80
2018-05-06T19:48:51.814Z,54.00
2018-05-06T19:51:18.020Z,54.00
2018-05-06T19:53:44.219Z,54.30
2018-05-06T19:56:10.397Z,55.10
2018-05-06T19:58:36.688Z,55.30
2018-05-06T20:01:02.901Z,55.10
2018-05-06T20:03:29.181Z,58.20
2018-05-06T20:05:55.380Z,56.60
2018-05-06T20:08:21.553Z,58.70
2018-05-06T20:10:48.467Z,56.90
2018-05-06T20:13:14.647Z,56.80
2018-05-06T20:15:40.863Z,56.20
2018-05-06T20:18:07.862Z,56.40
2018-05-06T20:20:34.165Z,56.30
2018-05-06T20:23:00.381Z,57.50
2018-05-06T20:25:26.571Z,56.30
2018-05-06T20:27:52.979Z,56.60
2018-05-06T20:30:19.172Z,57.60
2018-05-06T20:32:45.436Z,57.30
2018-05-06T20:35:11.663Z,59.40
2018-05-06T20:37:37.839Z,57.30
2018-05-06T20:40:04.786Z,57.20
2018-05-06T20:42:31.791Z,57.50
2018-05-06T20:44:58.731Z,57.70
2018-05-06T20:47:24.937Z,57.80
2018-05-06T20:49:51.260Z,56.60
2018-05-06T20:52:17.443Z,56.90
2018-05-06T20:54:43.636Z,57.30
2018-05-06T20:57:10.108Z,56.90
2018-05-06T20:59:36.420Z,56.80
2018-05-06T21:02:02.714Z,57.10
2018-05-06T21:04:28.888Z,57.50
2018-05-06T21:06:55.348Z,60.30
2018-05-06T21:09:21.553Z,58.30
2018-05-06T21:11:48.491Z,59.50
2018-05-06T21:14:14.735Z,59.60
2018-05-06T21:16:41.045Z,58.40
2018-05-06T21:19:07.638Z,58.50
2018-05-06T21:21:33.773Z,58.40
2018-05-06T21:23:59.966Z,59.30
2018-05-06T21:26:26.176Z,60.50
2018-05-06T21:28:52.371Z,61.10
2018-05-06T21:31:18.953Z,61.60
2018-05-06T21:33:45.981Z,59.70
2018-05-06T21:36:12.502Z,59.70
2018-05-06T21:38:38.939Z,60.80
2018-05-06T21:41:05.191Z,61.20
2018-05-06T21:43:31.467Z,60.70
2018-05-06T21:45:57.729Z,62.60
2018-05-06T21:48:23.927Z,63.50
2018-05-06T21:50:50.164Z,61.70
2018-05-06T21:53:16.360Z,61.40
2018-05-06T21:55:42.570Z,61.30
2018-05-06T21:58:08.772Z,61.60
2018-05-06T22:00:35.054Z,63.30
2018-05-06T22:03:02.048Z,61.20
2018-05-06T22:05:28.308Z,61.20
2018-05-06T22:07:54.942Z,61.60
2018-05-06T22:10:21.143Z,61.80
2018-05-06T22:12:47.346Z,62.00
2018-05-06T22:15:13.619Z,62.00
2018-05-06T22:17:39.821Z,62.10
2018-05-06T22:20:06.103Z,63.40
2018-05-06T22:22:32.379Z,63.60
2018-05-06T22:24:58.513Z,63.00
2018-05-06T22:27:24.737Z,63.80
2018-05-06T22:29:50.952Z,64.60
2018-05-06T22:32:17.216Z,64.60
2018-05-06T22:34:43.425Z,64.10
2018-05-06T22:37:09.982Z,65.10
2018-05-06T22:39:36.160Z,64.60
2018-05-06T22:42:03.255Z,65.60
2018-05-06T22:44:29.444Z,65.60
2018-05-06T22:46:55.660Z,65.80
2018-05-06T22:49:22.642Z,66.20
2018-05-06T22:51:48.985Z,66.10
2018-05-06T22:54:15.147Z,66.60
2018-05-06T22:56:41.329Z,66.30
2018-05-06T22:59:07.600Z,66.20
2018-05-06T23:01:33.821Z,66.20
2018-05-06T23:04:00.013Z,66.50
2018-05-06T23:06:26.234Z,67.00
2018-05-06T23:08:52.565Z,67.40
2018-05-06T23:11:18.926Z,67.40
2018-05-06T23:13:45.727Z,66.70
2018-05-06T23:16:11.978Z,66.60
2018-05-06T23:18:38.941Z,67.30
2018-05-06T23:21:05.120Z,67.90
2018-05-06T23:23:31.315Z,66.90
2018-05-06T23:25:57.510Z,67.30
2018-05-06T23:28:23.716Z,66.60
2018-05-06T23:30:49.934Z,66.60
2018-05-06T23:33:16.910Z,67.20
2018-05-06T23:35:43.172Z,67.20
2018-05-06T23:38:09.382Z,69.10
2018-05-06T23:40:35.664Z,68.10
2018-05-06T23:43:02.609Z,69.60
2018-05-06T23:45:29.552Z,69.80
2018-05-06T23:47:56.512Z,70.40
2018-05-06T23:50:23.495Z,70.40
2018-05-06T23:52:49.769Z,70.40
2018-05-06T23:55:16.722Z,71.30
2018-05-06T23:57:43.725Z,70.90
